createdAt,value
2018-07-16T00:01:10.500Z,27.75
2018-07-16T00:03:41.013Z,27.59
2018-07-16T00:06:12.062Z,27.59
2018-07-16T00:08:42.754Z,27.66
2018-07-16T00:11:13.822Z,27.30
2018-07-16T00:13:44.394Z,27.35
2018-07-16T00:16:15.057Z,27.39
2018-07-16T00:18:45.629Z,27.28
2018-07-16T00:21:16.625Z,27.26
2018-07-16T00:23:47.286Z,27.15
2018-07-16T00:26:18.225Z,27.32
2018-07-16T00:28:48.786Z,27.48
2018-07-16T00:31:19.558Z,27.18
2018-07-16T00:33:50.213Z,27.31
2018-07-16T00:36:21.049Z,27.44
2018-07-16T00:38:51.698Z,27.31
2018-07-16T00:41:22.574Z,27.11
2018-07-16T00:43:53.260Z,27.10
2018-07-16T00:46:23.774Z,27.10
2018-07-16T00:48:54.426Z,26.93
2018-07-16T00:51:25.103Z,26.54
2018-07-16T00:53:55.781Z,26.41
2018-07-16T00:56:26.541Z,26.68
2018-07-16T00:58:57.278Z,26.81
2018-07-16T01:01:28.270Z,26.84
2018-07-16T01:03:58.979Z,26.74
2018-07-16T01:06:30.059Z,26.73
2018-07-16T01:09:00.701Z,26.59
2018-07-16T01:11:31.393Z,26.55
2018-07-16T01:14:01.990Z,26.60
2018-07-16T01:16:32.902Z,26.67
2018-07-16T01:21:39.537Z,26.68
2018-07-16T01:24:10.222Z,26.45
2018-07-16T01:26:40.985Z,26.48
2018-07-16T01:29:11.668Z,26.48
2018-07-16T01:31:42.687Z,26.54
2018-07-16T01:34:13.334Z,26.72
2018-07-16T01:36:44.037Z,26.72
2018-07-16T01:39:14.534Z,26.69
2018-07-16T01:41:45.701Z,26.80
2018-07-16T01:44:16.229Z,26.93
2018-07-16T01:46:46.889Z,26.99
2018-07-16T01:49:17.556Z,27.04
2018-07-16T01:51:48.278Z,27.11
2018-07-16T01:54:18.843Z,27.18
2018-07-16T01:56:49.598Z,27.24
2018-07-16T01:59:20.426Z,27.36
2018-07-16T02:01:51.219Z,27.49
2018-07-16T02:04:21.854Z,27.51
2018-07-16T02:06:52.602Z,27.32
2018-07-16T02:09:23.328Z,27.24
2018-07-16T02:11:54.121Z,27.33
2018-07-16T02:14:24.785Z,27.10
2018-07-16T02:16:55.586Z,27.13
2018-07-16T02:19:26.256Z,27.02
2018-07-16T02:21:57.446Z,27.12
2018-07-16T02:24:28.102Z,27.35
2018-07-16T02:26:59.125Z,27.28
2018-07-16T02:29:29.717Z,27.32
2018-07-16T02:32:00.401Z,27.40
2018-07-16T02:34:31.064Z,27.37
2018-07-16T02:37:01.757Z,27.53
2018-07-16T02:39:32.488Z,27.28
2018-07-16T02:42:03.393Z,27.29
2018-07-16T02:44:34.096Z,27.15
2018-07-16T02:47:04.912Z,26.95
2018-07-16T02:49:35.589Z,26.89
2018-07-16T02:52:06.637Z,26.68
2018-07-16T02:54:37.297Z,26.65
2018-07-16T02:57:08.829Z,26.72
2018-07-16T02:59:39.617Z,26.78
2018-07-16T03:02:10.506Z,26.68
2018-07-16T03:04:40.692Z,26.71
2018-07-16T03:07:11.526Z,26.60
2018-07-16T03:09:42.143Z,26.75
2018-07-16T03:12:12.892Z,26.56
2018-07-16T03:14:43.631Z,26.39
2018-07-16T03:17:14.606Z,26.48
2018-07-16T03:19:45.259Z,26.48
2018-07-16T03:22:16.045Z,26.40
2018-07-16T03:24:46.851Z,26.49
2018-07-16T03:27:17.667Z,26.29
2018-07-16T03:29:48.329Z,25.94
2018-07-16T03:32:19.014Z,25.67
2018-07-16T03:34:49.721Z,25.65
2018-07-16T03:37:20.465Z,25.79
2018-07-16T03:39:51.161Z,26.07
2018-07-16T03:42:21.866Z,26.16
2018-07-16T03:44:52.574Z,26.21
2018-07-16T03:47:23.513Z,26.09
2018-07-16T03:49:53.801Z,26.30
2018-07-16T03:52:24.562Z,26.51
2018-07-16T03:54:55.301Z,26.69
2018-07-16T03:57:26.141Z,26.67
2018-07-16T03:59:56.769Z,26.72
2018-07-16T04:02:27.493Z,26.69
2018-07-16T04:04:58.181Z,26.72
2018-07-16T04:07:29.229Z,26.74
2018-07-16T04:09:59.856Z,26.46
2018-07-16T04:12:30.629Z,26.74
2018-07-16T04:15:01.221Z,26.72
2018-07-16T04:17:31.990Z,26.74
2018-07-16T04:20:02.693Z,26.73
2018-07-16T04:22:33.426Z,27.01
2018-07-16T04:25:04.158Z,26.87
2018-07-16T04:27:34.762Z,27.05
2018-07-16T04:30:05.521Z,27.11
2018-07-16T04:32:36.326Z,27.15
2018-07-16T04:35:07.080Z,27.41
2018-07-16T04:37:37.897Z,27.36
2018-07-16T04:40:08.652Z,27.38
2018-07-16T04:42:39.602Z,27.55
2018-07-16T04:45:10.324Z,27.53
2018-07-16T04:47:41.063Z,27.74
2018-07-16T04:50:11.855Z,27.67
2018-07-16T04:52:42.833Z,27.81
2018-07-16T04:55:13.574Z,28.06
2018-07-16T04:57:44.389Z,28.50
2018-07-16T05:00:15.099Z,28.86
2018-07-16T05:02:46.134Z,28.85
2018-07-16T05:05:16.743Z,29.16
2018-07-16T05:07:47.473Z,29.13
2018-07-16T05:10:18.158Z,29.30
2018-07-16T05:12:48.910Z,29.56
2018-07-16T05:15:19.554Z,29.73
2018-07-16T05:17:50.489Z,30.12
2018-07-16T05:20:21.266Z,30.23
2018-07-16T05:22:51.996Z,30.51
2018-07-16T05:25:22.374Z,30.55
2018-07-16T05:27:53.566Z,30.32
2018-07-16T05:30:24.185Z,30.62
2018-07-16T05:32:54.938Z,30.52
2018-07-16T05:35:25.666Z,30.74
2018-07-16T05:37:56.449Z,30.58
2018-07-16T05:40:27.080Z,30.97
2018-07-16T05:42:57.905Z,30.86
2018-07-16T05:45:28.545Z,30.92
2018-07-16T05:47:59.297Z,30.92
2018-07-16T05:50:30.022Z,30.92
2018-07-16T05:53:00.586Z,31.27
2018-07-16T05:55:31.305Z,31.29
2018-07-16T05:58:02.062Z,31.37
2018-07-16T06:00:32.737Z,31.31
2018-07-16T06:03:03.641Z,31.64
2018-07-16T06:05:34.341Z,31.54
2018-07-16T06:08:05.002Z,31.89
2018-07-16T06:10:36.234Z,31.99
2018-07-16T06:13:07.174Z,32.37
2018-07-16T06:15:37.861Z,32.23
2018-07-16T06:18:08.765Z,32.37
2018-07-16T06:20:39.511Z,32.44
2018-07-16T06:23:10.510Z,32.53
2018-07-16T06:25:41.255Z,32.85
2018-07-16T06:28:12.149Z,32.41
2018-07-16T06:30:42.705Z,32.93
2018-07-16T06:33:13.628Z,32.78
2018-07-16T06:35:44.369Z,32.27
2018-07-16T06:38:15.226Z,33.00
2018-07-16T06:40:46.157Z,33.61
2018-07-16T06:43:16.899Z,33.49
2018-07-16T06:45:47.590Z,33.27
2018-07-16T06:48:18.274Z,33.50
2018-07-16T06:50:48.998Z,33.51
2018-07-16T06:53:19.949Z,33.43
2018-07-16T06:55:50.622Z,33.67
2018-07-16T06:58:21.329Z,33.65
2018-07-16T07:00:52.050Z,34.08
2018-07-16T07:03:22.811Z,34.00
2018-07-16T07:05:53.514Z,34.33
2018-07-16T07:08:24.246Z,34.31
2018-07-16T07:10:55.039Z,34.42
2018-07-16T07:13:25.882Z,34.69
2018-07-16T07:15:56.766Z,34.90
2018-07-16T07:18:27.542Z,34.88
2018-07-16T07:20:58.286Z,34.90
2018-07-16T07:23:29.718Z,35.03
2018-07-16T07:26:00.395Z,34.73
2018-07-16T07:28:31.226Z,35.21
2018-07-16T07:31:01.988Z,35.25
2018-07-16T07:33:32.721Z,35.59
2018-07-16T07:36:03.413Z,35.87
2018-07-16T07:38:34.222Z,36.10
2018-07-16T07:41:04.950Z,36.44
2018-07-16T07:43:35.606Z,36.41
2018-07-16T07:46:06.357Z,36.87
2018-07-16T07:48:37.110Z,36.79
2018-07-16T07:51:07.843Z,36.49
2018-07-16T07:53:38.597Z,37.11
2018-07-16T07:56:09.268Z,37.41
2018-07-16T07:58:40.096Z,37.30
2018-07-16T08:01:10.874Z,36.95
2018-07-16T08:03:41.629Z,37.38
2018-07-16T08:06:12.338Z,37.71
2018-07-16T08:08:43.123Z,37.07
2018-07-16T08:11:13.816Z,36.98
2018-07-16T08:13:44.827Z,36.94
2018-07-16T08:16:15.529Z,37.40
2018-07-16T08:18:46.534Z,37.13
2018-07-16T08:21:17.210Z,37.45
2018-07-16T08:23:48.253Z,37.24
2018-07-16T08:26:18.942Z,37.84
2018-07-16T08:28:49.589Z,37.30
2018-07-16T08:31:20.382Z,37.55
2018-07-16T08:33:51.431Z,38.31
2018-07-16T08:36:22.033Z,38.03
2018-07-16T08:38:53.061Z,38.01
2018-07-16T08:41:23.734Z,37.65
2018-07-16T08:43:54.471Z,38.16
2018-07-16T08:46:25.102Z,37.49
2018-07-16T08:48:56.050Z,37.65
2018-07-16T08:51:26.725Z,38.31
2018-07-16T08:53:57.606Z,38.67
2018-07-16T08:56:28.236Z,38.04
2018-07-16T08:58:59.130Z,38.45
2018-07-16T09:01:29.852Z,39.62
2018-07-16T09:04:00.590Z,39.36
2018-07-16T09:06:31.241Z,38.80
2018-07-16T09:09:02.274Z,38.56
2018-07-16T09:11:32.937Z,38.46
2018-07-16T09:14:03.818Z,37.73
2018-07-16T11:25:58.911Z,38.78
2018-07-16T11:28:29.603Z,39.50
2018-07-16T11:31:00.647Z,39.44
2018-07-16T11:33:31.274Z,38.99
2018-07-16T11:36:02.081Z,39.32
2018-07-16T11:38:32.670Z,39.56
2018-07-16T11:41:07.875Z,39.62
2018-07-16T11:43:38.671Z,39.40
2018-07-16T11:46:09.310Z,39.88
2018-07-16T11:48:40.009Z,40.30
2018-07-16T11:51:10.761Z,40.50
2018-07-16T11:53:41.498Z,40.99
2018-07-16T11:56:12.306Z,40.19
2018-07-16T11:58:43.078Z,40.05
2018-07-16T12:01:14.366Z,40.72
2018-07-16T12:03:45.055Z,39.23
2018-07-16T12:06:20.823Z,39.78
2018-07-16T12:08:51.578Z,39.76
2018-07-16T12:11:22.509Z,39.20
2018-07-16T12:13:53.206Z,39.88
2018-07-16T12:16:24.086Z,39.24
2018-07-16T12:18:54.297Z,38.87
2018-07-16T12:21:25.153Z,39.66
2018-07-16T12:23:55.797Z,39.67
2018-07-16T12:26:26.814Z,40.27
2018-07-16T12:28:57.562Z,40.14
2018-07-16T12:31:28.431Z,40.79
2018-07-16T12:33:59.056Z,40.19
2018-07-16T12:36:30.007Z,40.37
2018-07-16T12:39:01.939Z,40.26
2018-07-16T12:41:32.911Z,39.90
2018-07-16T12:44:03.547Z,40.03
2018-07-16T12:46:34.373Z,40.00
2018-07-16T12:49:05.075Z,38.80
2018-07-16T12:51:41.666Z,39.42
2018-07-16T12:54:12.422Z,40.07
2018-07-16T12:56:43.237Z,39.28
2018-07-16T12:59:13.931Z,39.55
2018-07-16T13:01:44.698Z,39.57
2018-07-16T13:04:15.401Z,40.72
2018-07-16T13:06:46.367Z,40.73
2018-07-16T13:09:17.010Z,40.63
2018-07-16T13:11:47.797Z,40.71
2018-07-16T13:14:18.532Z,40.37
2018-07-16T13:16:49.341Z,39.77
2018-07-16T13:19:19.953Z,40.20
2018-07-16T13:21:50.901Z,40.09
2018-07-16T13:24:21.456Z,40.36
2018-07-16T13:26:52.392Z,40.43
2018-07-16T13:29:23.092Z,39.91
2018-07-16T13:31:54.684Z,39.85
2018-07-16T13:34:25.365Z,40.45
2018-07-16T13:36:56.462Z,40.00
2018-07-16T13:39:27.191Z,39.57
2018-07-16T13:41:58.135Z,39.95
2018-07-16T13:44:28.615Z,40.53
2018-07-16T13:46:59.388Z,40.62
2018-07-16T13:49:30.072Z,40.97
2018-07-16T13:52:00.841Z,39.82
2018-07-16T13:54:31.456Z,39.66
2018-07-16T13:57:03.040Z,40.09
2018-07-16T13:59:34.454Z,39.75
2018-07-16T14:02:05.302Z,40.31
2018-07-16T14:04:35.908Z,40.62
2018-07-16T14:07:06.962Z,40.53
2018-07-16T14:09:37.620Z,40.52
2018-07-16T14:12:08.362Z,41.00
2018-07-16T14:14:38.666Z,40.39
2018-07-16T14:17:09.279Z,39.48
2018-07-16T14:19:39.895Z,39.30
2018-07-16T14:22:10.658Z,39.20
2018-07-16T14:24:41.128Z,39.67
2018-07-16T14:27:11.462Z,39.91
2018-07-16T14:29:41.832Z,38.93
2018-07-16T14:32:12.444Z,39.70
2018-07-16T14:34:44.205Z,39.95
2018-07-16T14:37:14.710Z,39.57
2018-07-16T14:39:45.305Z,39.89
2018-07-16T14:42:15.820Z,38.88
2018-07-16T14:44:46.575Z,39.39
2018-07-16T14:47:17.184Z,38.95
2018-07-16T14:49:47.989Z,39.40
2018-07-16T14:52:18.542Z,39.37
2018-07-16T14:54:49.225Z,39.38
2018-07-16T14:57:19.300Z,38.97
2018-07-16T14:59:50.132Z,38.89
2018-07-16T15:02:20.909Z,38.81
2018-07-16T15:04:51.929Z,38.93
2018-07-16T15:07:22.501Z,38.91
2018-07-16T15:09:53.185Z,38.74
2018-07-16T15:12:23.504Z,38.47
2018-07-16T15:14:54.222Z,38.23
2018-07-16T15:17:25.020Z,38.15
2018-07-16T15:19:56.052Z,38.08
2018-07-16T15:22:26.316Z,37.81
2018-07-16T15:24:57.251Z,38.33
2018-07-16T15:27:27.888Z,38.03
2018-07-16T15:29:58.312Z,38.12
2018-07-16T15:32:28.928Z,38.29
2018-07-16T15:34:59.720Z,37.78
2018-07-16T15:37:30.185Z,37.71
2018-07-16T15:40:01.189Z,37.44
2018-07-16T15:42:31.287Z,37.71
2018-07-16T15:45:02.114Z,37.90
2018-07-16T15:47:32.806Z,37.89
2018-07-16T15:50:03.750Z,38.08
2018-07-16T15:52:34.393Z,37.87
2018-07-16T15:55:05.180Z,37.94
2018-07-16T15:57:35.879Z,37.73
2018-07-16T16:00:06.616Z,37.43
2018-07-16T16:02:37.381Z,37.30
2018-07-16T16:05:07.997Z,37.47
2018-07-16T16:07:38.294Z,37.46
2018-07-16T16:10:08.963Z,37.31
2018-07-16T16:12:39.628Z,37.05
2018-07-16T16:15:10.350Z,37.07
2018-07-16T16:17:41.085Z,36.92
2018-07-16T16:20:11.794Z,36.72
2018-07-16T16:22:42.472Z,36.52
2018-07-16T16:25:13.369Z,36.98
2018-07-16T16:27:44.245Z,36.79
2018-07-16T16:30:15.228Z,36.57
2018-07-16T16:32:45.905Z,36.52
2018-07-16T16:35:16.091Z,36.44
2018-07-16T16:37:46.848Z,36.19
2018-07-16T16:40:17.853Z,36.50
2018-07-16T16:42:47.996Z,36.14
2018-07-16T16:45:18.963Z,36.17
2018-07-16T16:47:49.428Z,35.92
2018-07-16T16:50:20.082Z,35.97
2018-07-16T16:52:50.853Z,35.83
2018-07-16T16:55:21.614Z,35.86
2018-07-16T16:57:52.280Z,35.68
2018-07-16T17:00:23.056Z,35.70
2018-07-16T17:02:53.509Z,35.68
2018-07-16T17:05:24.155Z,35.72
2018-07-16T17:07:54.810Z,35.63
2018-07-16T17:10:25.775Z,35.46
2018-07-16T17:12:56.573Z,35.04
2018-07-16T17:15:27.281Z,34.85
2018-07-16T17:17:57.962Z,34.18
2018-07-16T17:20:28.741Z,33.78
2018-07-16T17:22:59.543Z,33.68
2018-07-16T17:25:30.594Z,33.48
2018-07-16T17:28:01.423Z,33.38
2018-07-16T17:30:31.989Z,33.27
2018-07-16T17:33:02.693Z,33.32
2018-07-16T17:35:33.759Z,33.43
2018-07-16T17:38:05.021Z,33.42
2018-07-16T17:40:35.713Z,33.51
2018-07-16T17:43:06.580Z,33.60
2018-07-16T17:45:37.335Z,33.51
2018-07-16T17:48:07.977Z,33.30
2018-07-16T17:50:38.826Z,33.21
2018-07-16T17:53:09.596Z,33.09
2018-07-16T17:55:40.684Z,33.22
2018-07-16T17:58:11.141Z,32.95
2018-07-16T18:00:41.605Z,32.81
2018-07-16T18:03:12.281Z,32.62
2018-07-16T18:05:43.121Z,32.59
2018-07-16T18:08:13.873Z,32.41
2018-07-16T18:10:44.766Z,32.53
2018-07-16T18:13:15.496Z,32.41
2018-07-16T18:15:46.177Z,32.29
2018-07-16T18:18:16.269Z,32.29
2018-07-16T18:20:47.182Z,32.15
2018-07-16T18:23:17.829Z,31.88
2018-07-16T18:25:48.641Z,31.56
2018-07-16T18:28:19.302Z,31.14
2018-07-16T18:30:50.080Z,31.10
2018-07-16T18:33:20.846Z,30.90
2018-07-16T18:35:51.726Z,30.75
2018-07-16T18:38:22.437Z,30.71
2018-07-16T18:40:53.115Z,30.67
2018-07-16T18:43:23.789Z,30.47
2018-07-16T18:45:54.565Z,30.40
2018-07-16T18:48:25.262Z,30.40
2018-07-16T18:50:56.019Z,30.19
2018-07-16T18:53:26.722Z,30.20
2018-07-16T18:55:57.606Z,30.20
2018-07-16T18:58:28.350Z,30.18
2018-07-16T19:00:59.242Z,30.13
2018-07-16T19:03:29.892Z,30.14
2018-07-16T19:06:00.969Z,30.08
2018-07-16T19:08:31.557Z,29.89
2018-07-16T19:11:02.365Z,29.73
2018-07-16T19:13:32.999Z,29.67
2018-07-16T19:16:03.806Z,29.98
2018-07-16T19:18:34.514Z,30.11
2018-07-16T19:21:05.483Z,30.10
2018-07-16T19:23:36.029Z,30.01
2018-07-16T19:26:06.930Z,30.03
2018-07-16T19:28:37.852Z,30.06
2018-07-16T19:31:09.082Z,30.06
2018-07-16T19:33:39.834Z,30.01
2018-07-16T19:36:10.613Z,29.92
2018-07-16T19:38:41.414Z,29.78
2018-07-16T19:41:12.201Z,29.75
2018-07-16T19:43:42.926Z,29.69
2018-07-16T19:46:13.601Z,29.59
2018-07-16T19:48:44.310Z,29.54
2018-07-16T19:51:15.121Z,29.39
2018-07-16T19:53:45.762Z,29.37
2018-07-16T19:56:16.466Z,29.42
2018-07-16T19:58:47.125Z,29.46
2018-07-16T20:01:17.999Z,29.43
2018-07-16T20:03:48.709Z,29.39
2018-07-16T20:06:19.490Z,29.34
2018-07-16T20:08:50.161Z,29.30
2018-07-16T20:11:20.846Z,29.42
2018-07-16T20:13:51.580Z,29.34
2018-07-16T20:16:22.586Z,28.94
2018-07-16T20:18:53.197Z,28.72
2018-07-16T20:21:24.125Z,28.42
2018-07-16T20:23:54.922Z,28.29
2018-07-16T20:26:25.741Z,28.18
2018-07-16T20:28:56.493Z,28.14
2018-07-16T20:31:27.334Z,26.42
2018-07-16T20:33:58.056Z,26.46
2018-07-16T20:36:28.789Z,26.59
2018-07-16T20:38:59.558Z,26.73
2018-07-16T20:41:30.787Z,26.79
2018-07-16T20:44:01.541Z,26.92
2018-07-16T20:46:32.294Z,26.77
2018-07-16T20:49:02.974Z,26.92
2018-07-16T20:51:34.110Z,26.85
2018-07-16T20:54:04.794Z,26.86
2018-07-16T20:56:35.534Z,26.89
2018-07-16T20:59:06.428Z,26.89
2018-07-16T21:01:37.217Z,26.52
2018-07-16T21:04:07.981Z,26.05
2018-07-16T21:06:38.637Z,25.77
2018-07-16T21:09:10.321Z,25.50
2018-07-16T21:11:41.021Z,25.41
2018-07-16T21:14:11.576Z,25.13
2018-07-16T21:16:42.494Z,25.11
2018-07-16T21:19:13.303Z,24.67
2018-07-16T21:21:44.173Z,25.15
2018-07-16T21:24:14.845Z,25.27
2018-07-16T21:26:45.501Z,25.47
2018-07-16T21:29:16.181Z,25.60
2018-07-16T21:31:46.947Z,25.59
2018-07-16T21:34:17.648Z,25.53
2018-07-16T21:36:48.602Z,25.59
2018-07-16T21:39:19.319Z,25.62
2018-07-16T21:41:50.259Z,25.69
2018-07-16T21:44:20.932Z,25.75
2018-07-16T21:46:51.805Z,25.80
2018-07-16T21:49:22.559Z,25.81
2018-07-16T21:51:53.551Z,25.86
2018-07-16T21:54:24.231Z,25.89
2018-07-16T21:56:55.680Z,25.94
2018-07-16T21:59:26.208Z,25.99
2018-07-16T22:01:56.945Z,25.96
2018-07-16T22:04:27.567Z,26.01
2018-07-16T22:06:58.550Z,26.09
2018-07-16T22:09:29.173Z,26.05
2018-07-16T22:11:59.923Z,26.03
2018-07-16T22:14:30.634Z,26.07
2018-07-16T22:17:01.450Z,26.08
2018-07-16T22:19:32.349Z,26.07
2018-07-16T22:22:03.151Z,26.16
2018-07-16T22:24:33.666Z,26.24
2018-07-16T22:27:04.690Z,26.32
2018-07-16T22:29:35.451Z,26.26
2018-07-16T22:32:06.133Z,26.22
2018-07-16T22:34:36.846Z,26.26
2018-07-16T22:37:07.597Z,26.22
2018-07-16T22:39:38.245Z,26.25
2018-07-16T22:42:08.938Z,26.23
2018-07-16T22:44:39.674Z,26.22
2018-07-16T22:47:12.145Z,26.16
2018-07-16T22:49:42.930Z,25.59
2018-07-16T22:52:13.640Z,25.66
2018-07-16T22:54:44.302Z,25.62
2018-07-16T22:57:15.084Z,25.61
2018-07-16T22:59:45.269Z,25.56
2018-07-16T23:02:16.074Z,25.52
2018-07-16T23:04:46.713Z,25.49
2018-07-16T23:07:17.649Z,25.48
2018-07-16T23:09:48.285Z,25.35
2018-07-16T23:12:19.022Z,25.47
2018-07-16T23:14:49.747Z,25.19
2018-07-16T23:17:20.497Z,25.09
2018-07-16T23:19:51.013Z,25.24
2018-07-16T23:22:21.933Z,25.18
2018-07-16T23:24:52.615Z,25.10
2018-07-16T23:27:23.364Z,25.08
2018-07-16T23:29:54.104Z,25.11
2018-07-16T23:32:25.149Z,25.20
2018-07-16T23:34:55.870Z,25.02
2018-07-16T23:37:26.621Z,25.01
2018-07-16T23:39:57.294Z,25.05
2018-07-16T23:42:28.020Z,25.10
2018-07-16T23:44:58.654Z,24.79
2018-07-16T23:47:29.552Z,24.91
2018-07-16T23:50:00.258Z,25.06
2018-07-16T23:52:31.768Z,25.15
2018-07-16T23:55:02.334Z,25.18
2018-07-16T23:57:33.395Z,25.26
